Time;durP1;ratioP1;P1;durP2;ratioP2;P2;SDS_P1;SDS_P2;PMS_P1;PMS_P2;Temp;Humidity;BMP_temperature;BMP_pressure;BME280_temperature;BME280_humidity;BME280_pressure;Samples;Min_cycle;Max_cycle;Signal;HPM_P1;HPM_P2
2022/01/19 00:00:48;;;;;;;95.43;36.13;;;4.90;99.90;;;;;;5058171;28;20399;-72
2022/01/19 00:03:15;;;;;;;100.15;38.15;;;4.90;99.90;;;;;;5071896;28;20046;-72
2022/01/19 00:05:41;;;;;;;69.55;28.60;;;4.90;99.90;;;;;;5057692;28;20036;-72
2022/01/19 00:08:07;;;;;;;73.78;29.75;;;4.90;99.90;;;;;;5074680;28;20075;-72
2022/01/19 00:10:33;;;;;;;84.07;33.05;;;4.90;99.90;;;;;;5074159;28;20507;-72
2022/01/19 00:13:00;;;;;;;71.00;28.27;;;4.90;99.90;;;;;;5074283;28;20059;-72
2022/01/19 00:15:28;;;;;;;84.68;31.17;;;4.90;99.90;;;;;;5057537;28;20046;-72
2022/01/19 00:17:57;;;;;;;75.65;29.17;;;4.90;99.90;;;;;;5074273;28;20076;-72
2022/01/19 00:20:24;;;;;;;76.43;31.00;;;4.90;99.90;;;;;;5074099;28;20048;-72
2022/01/19 00:22:51;;;;;;;71.38;26.90;;;4.90;99.90;;;;;;5057913;28;20048;-73
2022/01/19 00:25:17;;;;;;;63.45;26.63;;;4.80;99.90;;;;;;5073998;28;20127;-72
2022/01/19 00:27:44;;;;;;;71.22;30.10;;;4.80;99.90;;;;;;5074125;28;20040;-72
2022/01/19 00:30:10;;;;;;;76.85;29.92;;;4.80;99.90;;;;;;5057650;28;20244;-72
2022/01/19 00:32:35;;;;;;;74.50;31.17;;;4.80;99.90;;;;;;5071644;28;20047;-72
2022/01/19 00:35:03;;;;;;;78.80;33.15;;;4.80;99.90;;;;;;5057498;28;20036;-72
2022/01/19 00:37:29;;;;;;;73.35;28.10;;;4.80;99.90;;;;;;5073967;28;20047;-72
2022/01/19 00:39:55;;;;;;;69.00;29.13;;;4.90;99.90;;;;;;5073913;28;20040;-72
2022/01/19 00:42:21;;;;;;;74.53;30.38;;;4.80;99.90;;;;;;5074108;28;20050;-72
2022/01/19 00:44:47;;;;;;;73.57;30.38;;;4.80;99.90;;;;;;5073823;28;20057;-72
2022/01/19 00:47:14;;;;;;;77.53;30.85;;;4.80;99.90;;;;;;5074043;28;20036;-72
2022/01/19 00:49:42;;;;;;;77.65;32.47;;;4.80;99.90;;;;;;5074202;28;20048;-72
2022/01/19 00:52:08;;;;;;;80.35;32.78;;;4.80;99.90;;;;;;5057047;28;20036;-72
2022/01/19 00:54:34;;;;;;;91.18;33.95;;;4.80;99.90;;;;;;5057234;28;20044;-72
2022/01/19 00:57:00;;;;;;;80.05;33.60;;;4.80;99.90;;;;;;5073639;28;20040;-72
2022/01/19 00:59:26;;;;;;;66.57;33.63;;;4.80;99.90;;;;;;5073765;28;20043;-72
2022/01/19 01:01:52;;;;;;;76.28;32.70;;;4.80;99.90;;;;;;5054503;28;20077;-72
2022/01/19 01:04:17;;;;;;;72.05;28.75;;;4.80;99.90;;;;;;5057118;28;20122;-72
2022/01/19 01:06:43;;;;;;;61.10;26.50;;;4.80;99.90;;;;;;5073714;28;20047;-72
2022/01/19 01:09:09;;;;;;;75.00;29.30;;;4.80;99.90;;;;;;5073691;28;20044;-72
2022/01/19 01:11:37;;;;;;;59.97;29.45;;;4.80;99.90;;;;;;5073844;28;20051;-72
2022/01/19 01:16:36;;;;;;;63.03;30.13;;;4.80;99.90;;;;;;5077806;28;20058;-72
2022/01/19 01:19:05;;;;;;;72.25;33.40;;;4.80;99.90;;;;;;5060225;28;20040;-72
2022/01/19 01:21:31;;;;;;;75.30;33.22;;;4.90;99.90;;;;;;5068994;28;20056;-72
2022/01/19 01:23:57;;;;;;;72.05;31.98;;;4.80;99.90;;;;;;5077383;28;20059;-72
2022/01/19 01:26:23;;;;;;;60.25;26.77;;;4.90;99.90;;;;;;5060528;28;20036;-72
2022/01/19 01:28:48;;;;;;;65.60;25.92;;;4.90;99.90;;;;;;5060797;28;20036;-73
2022/01/19 01:31:14;;;;;;;69.35;28.10;;;4.90;99.90;;;;;;5077235;28;20035;-73
2022/01/19 01:33:41;;;;;;;68.22;28.73;;;4.90;99.90;;;;;;5074976;28;20052;-72
2022/01/19 01:36:07;;;;;;;69.43;27.98;;;4.90;99.90;;;;;;5077476;28;20067;-72
2022/01/19 01:38:33;;;;;;;68.13;27.63;;;4.80;99.90;;;;;;5077519;28;20470;-72
2022/01/19 01:41:00;;;;;;;49.30;18.67;;;4.80;99.90;;;;;;5060255;28;20036;-73
2022/01/19 01:43:26;;;;;;;59.30;22.25;;;4.80;99.90;;;;;;5077015;28;20484;-72
2022/01/19 01:45:59;;;;;;;54.05;21.75;;;4.80;99.90;;;;;;5077044;28;20043;-72
2022/01/19 01:48:25;;;;;;;60.35;25.23;;;4.80;99.90;;;;;;5060315;28;20032;-72
2022/01/19 01:53:37;;;;;;;68.57;27.90;;;4.80;99.90;;;;;;5076795;28;20040;-72
2022/01/19 01:56:13;;;;;;;82.40;27.67;;;4.70;99.90;;;;;;5076913;28;20050;-72
2022/01/19 01:58:42;;;;;;;70.43;25.60;;;4.80;99.90;;;;;;5076830;28;20491;-72
2022/01/19 02:01:09;;;;;;;88.57;31.92;;;4.70;99.90;;;;;;5076735;28;20047;-72
2022/01/19 02:03:39;;;;;;;66.53;26.27;;;4.70;99.90;;;;;;5074234;28;20557;-72
2022/01/19 02:08:40;;;;;;;104.88;35.13;;;4.60;99.90;;;;;;5076782;28;20131;-72
2022/01/19 02:16:28;;;;;;;101.90;32.35;;;4.60;99.90;;;;;;5076633;28;20052;-72
2022/01/19 02:21:59;;;;;;;88.65;25.48;;;4.50;99.90;;;;;;5056319;28;20049;-72
2022/01/19 02:24:30;;;;;;;89.47;27.55;;;4.50;99.90;;;;;;5056358;28;20439;-72
2022/01/19 02:40:28;;;;;;;214.95;38.15;;;4.20;99.90;;;;;;5056224;28;20041;-72
2022/01/19 02:50:58;;;;;;;126.53;22.48;;;4.10;99.90;;;;;;5055909;28;20520;-72
2022/01/19 02:53:24;;;;;;;140.70;22.98;;;4.00;99.90;;;;;;5055619;28;20235;-72
2022/01/19 02:55:49;;;;;;;227.90;28.08;;;3.90;99.90;;;;;;5055834;28;20048;-72
2022/01/19 02:58:19;;;;;;;153.10;22.52;;;3.80;99.90;;;;;;5055514;28;20127;-71
2022/01/19 03:08:43;;;;;;;155.90;24.20;;;3.70;99.90;;;;;;5055550;28;20041;-72
2022/01/19 03:09:03;;;;;;;184.30;27.38;;;3.70;99.90;;;;;;5055168;28;20553;-72
2022/01/19 03:11:30;;;;;;;77.75;17.90;;;3.60;99.90;;;;;;5055365;28;20048;-72
2022/01/19 03:13:56;;;;;;;161.82;27.13;;;3.60;99.90;;;;;;5055336;28;20127;-72
2022/01/19 03:16:22;;;;;;;189.07;29.40;;;3.60;99.90;;;;;;5055342;28;20174;-72
2022/01/19 03:18:49;;;;;;;213.45;30.83;;;3.60;99.90;;;;;;5055564;28;20131;-72
2022/01/19 03:21:16;;;;;;;115.88;21.90;;;3.60;99.90;;;;;;5073928;28;20060;-72
2022/01/19 03:23:43;;;;;;;271.58;38.97;;;3.50;99.90;;;;;;5075149;28;20503;-72
2022/01/19 03:26:09;;;;;;;146.23;23.92;;;3.50;99.90;;;;;;5075149;28;20082;-72
2022/01/19 03:28:35;;;;;;;263.50;35.20;;;3.60;99.90;;;;;;5058634;28;20075;-72
2022/01/19 03:31:02;;;;;;;197.50;31.13;;;3.50;99.90;;;;;;5075060;28;20044;-71
2022/01/19 03:33:28;;;;;;;126.35;24.58;;;3.50;99.90;;;;;;5072573;28;20154;-72
2022/01/19 03:35:53;;;;;;;98.72;20.02;;;3.40;99.90;;;;;;5074927;28;20079;-71
2022/01/19 03:38:19;;;;;;;137.13;27.98;;;3.40;99.90;;;;;;5074876;28;20607;-72
2022/01/19 03:40:45;;;;;;;205.10;35.25;;;3.30;99.90;;;;;;5074795;28;20522;-72
2022/01/19 03:43:11;;;;;;;190.63;36.80;;;3.30;99.90;;;;;;5074964;28;20109;-72
2022/01/19 03:45:38;;;;;;;263.77;41.38;;;3.30;99.90;;;;;;5058428;28;20051;-72
2022/01/19 03:48:30;;;;;;;200.52;36.28;;;3.30;99.90;;;;;;5074642;28;20043;-72
2022/01/19 03:50:51;;;;;;;267.27;45.17;;;3.30;99.90;;;;;;5073851;28;20040;-72
2022/01/19 03:53:16;;;;;;;190.55;37.30;;;3.30;99.90;;;;;;5074657;28;20043;-72
2022/01/19 03:55:42;;;;;;;355.90;53.85;;;3.30;99.90;;;;;;5074551;28;20124;-72
2022/01/19 03:58:08;;;;;;;206.60;39.70;;;3.30;99.90;;;;;;5074644;28;20043;-72
2022/01/19 04:00:39;;;;;;;282.65;47.65;;;3.30;99.90;;;;;;5074733;28;20484;-72
2022/01/19 04:03:06;;;;;;;205.77;40.40;;;3.30;99.90;;;;;;5055164;28;20178;-72
2022/01/19 04:06:17;;;;;;;234.88;43.75;;;3.30;99.90;;;;;;5074441;28;20122;-72
2022/01/19 04:08:25;;;;;;;176.07;38.70;;;3.30;99.90;;;;;;5065406;28;20040;-71
2022/01/19 04:10:51;;;;;;;211.07;43.67;;;3.40;99.90;;;;;;5057861;28;20039;-72
2022/01/19 04:15:55;;;;;;;148.77;37.20;;;3.40;99.90;;;;;;5074496;28;20043;-72
2022/01/19 04:18:21;;;;;;;112.85;33.75;;;3.40;99.90;;;;;;5074235;28;20404;-71
2022/01/19 04:20:50;;;;;;;131.30;36.38;;;3.40;99.90;;;;;;5073970;28;20055;-72
2022/01/19 04:23:21;;;;;;;107.20;34.85;;;3.40;99.90;;;;;;5074104;28;20040;-71
2022/01/19 04:25:47;;;;;;;;;;;3.40;99.90;;;;;;5074551;28;20040;-72
2022/01/19 04:28:14;;;;;;;140.98;37.55;;;3.40;99.90;;;;;;5074305;28;19923;-72
2022/01/19 04:30:42;;;;;;;121.35;35.42;;;3.40;99.90;;;;;;5057496;28;20044;-71
2022/01/19 04:33:12;;;;;;;134.48;36.50;;;3.40;99.90;;;;;;5055120;28;20381;-72
2022/01/19 04:35:47;;;;;;;;;;;3.30;99.90;;;;;;5074853;28;20396;-72
2022/01/19 05:07:36;;;;;;;146.52;38.78;;;3.20;99.90;;;;;;5073733;28;20075;-72
2022/01/19 05:15:18;;;;;;;98.50;33.35;;;3.30;99.90;;;;;;5073473;28;20131;-71
2022/01/19 05:17:44;;;;;;;117.13;34.67;;;3.30;99.90;;;;;;5057153;28;20047;-71
2022/01/19 05:20:12;;;;;;;117.43;32.95;;;3.30;99.90;;;;;;5073120;28;20047;-72
2022/01/19 05:22:38;;;;;;;114.40;36.05;;;3.30;99.90;;;;;;5057200;28;20377;-71
2022/01/19 05:25:04;;;;;;;106.72;33.60;;;3.30;99.90;;;;;;5073331;28;20043;-72
2022/01/19 05:27:30;;;;;;;107.22;34.47;;;3.30;99.90;;;;;;5073534;28;20500;-72
2022/01/19 05:29:56;;;;;;;127.22;33.85;;;3.40;99.90;;;;;;5073434;28;20040;-71
2022/01/19 05:32:23;;;;;;;99.53;32.35;;;3.40;99.90;;;;;;5071345;28;20032;-72
2022/01/19 05:34:48;;;;;;;108.70;32.65;;;3.40;99.90;;;;;;5073291;28;20052;-72
2022/01/19 05:37:14;;;;;;;88.20;31.67;;;3.30;99.90;;;;;;5056725;28;20046;-71
2022/01/19 05:39:40;;;;;;;89.40;29.17;;;3.30;99.90;;;;;;5073571;28;20048;-73
2022/01/19 05:42:13;;;;;;;91.95;31.70;;;3.30;99.90;;;;;;5056656;28;20036;-72
2022/01/19 05:44:39;;;;;;;115.40;34.25;;;3.30;99.90;;;;;;5073257;28;20101;-71
2022/01/19 05:47:05;;;;;;;86.20;30.38;;;3.30;99.90;;;;;;5056866;28;20044;-71
2022/01/19 05:49:31;;;;;;;86.95;31.40;;;3.30;99.90;;;;;;5073472;28;20396;-72
2022/01/19 05:51:57;;;;;;;120.53;35.53;;;3.30;99.90;;;;;;5056564;28;20487;-72
2022/01/19 05:54:23;;;;;;;100.35;33.47;;;3.30;99.90;;;;;;5056755;28;20040;-72
2022/01/19 05:56:50;;;;;;;106.07;36.20;;;3.40;99.90;;;;;;5073233;28;20044;-71
2022/01/19 05:59:16;;;;;;;105.25;34.72;;;3.40;99.90;;;;;;5073428;28;20445;-72
2022/01/19 06:01:42;;;;;;;90.30;33.60;;;3.40;99.90;;;;;;5059364;28;20294;-72
2022/01/19 06:04:08;;;;;;;96.43;33.58;;;3.40;99.90;;;;;;5058261;28;20135;-72
2022/01/19 06:06:34;;;;;;;83.80;31.98;;;3.50;99.90;;;;;;5076691;28;20178;-72
2022/01/19 06:09:02;;;;;;;69.80;28.00;;;3.50;99.90;;;;;;5059860;28;20044;-72
2022/01/19 06:11:28;;;;;;;69.97;26.58;;;3.50;99.90;;;;;;5076901;28;20046;-72
2022/01/19 06:13:54;;;;;;;86.68;30.88;;;3.50;99.90;;;;;;5076680;28;20496;-72
2022/01/19 06:16:20;;;;;;;85.03;30.88;;;3.50;99.90;;;;;;5060035;28;20120;-72
2022/01/19 06:18:45;;;;;;;84.55;32.60;;;3.50;99.90;;;;;;5076482;28;20056;-73
2022/01/19 06:21:12;;;;;;;89.07;33.33;;;3.50;99.90;;;;;;5066807;28;20055;-72
2022/01/19 06:23:39;;;;;;;78.55;32.30;;;3.50;99.90;;;;;;5076483;28;20048;-72
2022/01/19 06:26:05;;;;;;;86.40;33.78;;;3.50;99.90;;;;;;5059851;28;20040;-72
2022/01/19 06:28:31;;;;;;;82.78;32.33;;;3.50;99.90;;;;;;5059967;28;20097;-72
2022/01/19 06:30:57;;;;;;;80.80;32.13;;;3.60;99.90;;;;;;5059880;28;20076;-72
2022/01/19 06:33:23;;;;;;;88.43;34.50;;;3.60;99.90;;;;;;5074044;28;20399;-71
2022/01/19 06:35:50;;;;;;;93.43;33.33;;;3.60;99.90;;;;;;5076168;28;20068;-72
2022/01/19 06:38:16;;;;;;;91.78;32.65;;;3.60;99.90;;;;;;5076263;28;20036;-72
2022/01/19 06:40:41;;;;;;;90.00;31.73;;;3.60;99.90;;;;;;5076270;28;20122;-72
2022/01/19 06:43:07;;;;;;;91.75;31.55;;;3.70;99.90;;;;;;5075940;28;20032;-72
2022/01/19 06:45:33;;;;;;;91.90;32.08;;;3.70;99.90;;;;;;5059113;28;20040;-72
2022/01/19 06:47:59;;;;;;;84.72;33.13;;;3.70;99.90;;;;;;5059581;28;20502;-71
2022/01/19 06:50:25;;;;;;;80.28;33.97;;;3.70;99.90;;;;;;5059448;28;20158;-71
2022/01/19 06:52:51;;;;;;;90.80;35.75;;;3.70;99.90;;;;;;5076214;28;20059;-72
2022/01/19 06:55:18;;;;;;;88.57;34.42;;;3.80;99.90;;;;;;5075709;28;20044;-72
2022/01/19 06:57:46;;;;;;;81.65;32.05;;;3.70;99.90;;;;;;5059114;28;20040;-72
2022/01/19 07:00:14;;;;;;;78.40;33.50;;;3.80;99.90;;;;;;5075546;28;20495;-72
2022/01/19 07:02:40;;;;;;;85.85;32.88;;;3.80;99.90;;;;;;5057139;28;20080;-72
2022/01/19 07:05:06;;;;;;;69.28;26.73;;;3.80;99.90;;;;;;5075403;28;20575;-72
2022/01/19 07:07:31;;;;;;;82.50;31.58;;;3.80;99.90;;;;;;5059199;28;20388;-72
2022/01/19 07:09:57;;;;;;;79.93;31.48;;;3.90;99.90;;;;;;5075371;28;20036;-72
2022/01/19 07:12:26;;;;;;;75.35;28.75;;;3.90;99.90;;;;;;5075129;28;20040;-72
2022/01/19 07:14:52;;;;;;;73.38;27.60;;;3.90;99.90;;;;;;5058829;28;20391;-72
2022/01/19 07:17:17;;;;;;;71.82;32.17;;;3.90;99.90;;;;;;5075357;28;20044;-72
2022/01/19 07:19:43;;;;;;;77.55;31.48;;;3.90;99.90;;;;;;5075051;28;20043;-72
2022/01/19 07:22:09;;;;;;;75.43;31.55;;;3.90;99.90;;;;;;5075113;28;20138;-72
2022/01/19 07:24:35;;;;;;;74.07;31.90;;;3.90;99.90;;;;;;5058541;28;20101;-73
2022/01/19 07:27:00;;;;;;;79.22;31.38;;;3.90;99.90;;;;;;5075310;28;20032;-72
2022/01/19 07:29:27;;;;;;;82.47;32.45;;;3.90;99.90;;;;;;5058518;28;20513;-72
2022/01/19 07:31:56;;;;;;;84.70;31.65;;;3.90;99.90;;;;;;5056981;28;20048;-72
2022/01/19 07:34:22;;;;;;;78.43;31.92;;;4.00;99.90;;;;;;5075990;28;20078;-72
2022/01/19 07:36:48;;;;;;;75.30;33.28;;;4.00;99.90;;;;;;5075813;28;20071;-72
2022/01/19 07:39:14;;;;;;;75.63;30.38;;;4.00;99.90;;;;;;5059246;28;20131;-73
2022/01/19 07:41:40;;;;;;;82.63;33.72;;;4.00;99.90;;;;;;5075768;28;20077;-72
2022/01/19 07:44:06;;;;;;;65.82;27.98;;;4.00;99.90;;;;;;5075648;28;20040;-72
2022/01/19 07:46:32;;;;;;;62.20;26.88;;;4.00;99.90;;;;;;5058995;28;20028;-72
2022/01/19 07:48:57;;;;;;;68.57;28.30;;;4.00;99.90;;;;;;5075671;28;20044;-72
2022/01/19 07:51:23;;;;;;;79.03;31.48;;;4.00;99.90;;;;;;5058869;28;20160;-72
2022/01/19 07:53:49;;;;;;;56.92;25.92;;;4.00;99.90;;;;;;5075653;28;20123;-72
2022/01/19 07:56:15;;;;;;;55.60;22.52;;;4.00;99.90;;;;;;5058787;28;20047;-72
2022/01/19 07:58:41;;;;;;;56.53;25.13;;;4.00;99.90;;;;;;5058775;28;20040;-72
2022/01/19 08:01:07;;;;;;;58.13;25.15;;;4.00;99.90;;;;;;5075402;28;20047;-72
2022/01/19 08:03:33;;;;;;;55.08;24.38;;;4.00;99.90;;;;;;5056802;28;20032;-72
2022/01/19 08:05:58;;;;;;;61.70;29.48;;;4.00;99.90;;;;;;5075204;28;20553;-73
2022/01/19 08:08:24;;;;;;;71.57;29.35;;;4.00;99.90;;;;;;5070477;28;20041;-73
2022/01/19 08:10:50;;;;;;;55.97;25.95;;;3.90;99.90;;;;;;5092110;28;20078;-74
2022/01/19 08:13:17;;;;;;;59.97;24.55;;;4.00;99.90;;;;;;5075114;28;20036;-72
2022/01/19 08:15:43;;;;;;;58.38;24.25;;;4.00;99.90;;;;;;5092224;28;20123;-71
2022/01/19 08:18:09;;;;;;;61.53;24.40;;;4.00;99.90;;;;;;5075107;28;20608;-72
2022/01/19 08:20:34;;;;;;;51.40;23.10;;;4.00;99.90;;;;;;5081702;28;20081;-72
2022/01/19 08:23:02;;;;;;;70.75;28.92;;;4.00;99.90;;;;;;5074822;28;20063;-72
2022/01/19 08:25:28;;;;;;;74.50;29.75;;;4.00;99.90;;;;;;5074453;28;20054;-74
2022/01/19 08:27:54;;;;;;;66.65;29.52;;;4.00;99.90;;;;;;5058602;28;20035;-75
2022/01/19 08:30:19;;;;;;;72.72;31.70;;;4.00;99.90;;;;;;5058945;28;20547;-75
2022/01/19 08:32:45;;;;;;;68.43;28.83;;;4.00;99.90;;;;;;5073151;28;20590;-74
2022/01/19 08:35:11;;;;;;;61.25;24.52;;;4.00;99.90;;;;;;5075334;28;20047;-75
2022/01/19 08:37:37;;;;;;;77.22;32.55;;;4.10;99.90;;;;;;5074988;28;20499;-74
2022/01/19 08:40:05;;;;;;;67.82;27.55;;;4.10;99.90;;;;;;5058441;28;20083;-74
2022/01/19 08:42:33;;;;;;;64.80;27.75;;;4.20;99.90;;;;;;5058329;28;20074;-73
2022/01/19 08:45:05;;;;;;;69.25;28.20;;;4.20;99.90;;;;;;5075282;28;20042;-76
2022/01/19 08:47:31;;;;;;;55.63;24.00;;;4.20;99.90;;;;;;5058622;28;20166;-73
2022/01/19 08:49:57;;;;;;;59.58;25.42;;;4.20;99.90;;;;;;5075264;28;20127;-74
2022/01/19 08:52:23;;;;;;;73.32;29.63;;;4.20;99.90;;;;;;5058188;28;20442;-73
2022/01/19 08:54:49;;;;;;;73.47;31.13;;;4.20;99.90;;;;;;5057968;28;20048;-74
2022/01/19 08:57:16;;;;;;;80.47;36.40;;;4.30;99.90;;;;;;5074785;28;20055;-74
2022/01/19 08:59:42;;;;;;;73.28;31.38;;;4.20;99.90;;;;;;5075091;28;20085;-75
2022/01/19 09:02:09;;;;;;;74.03;31.27;;;4.20;99.90;;;;;;5056119;28;20406;-72
2022/01/19 09:04:34;;;;;;;80.35;34.83;;;4.20;99.90;;;;;;5074746;28;20036;-76
2022/01/19 09:07:01;;;;;;;81.10;32.67;;;4.30;99.90;;;;;;5058129;28;20089;-74
2022/01/19 09:09:26;;;;;;;80.88;33.90;;;4.30;99.90;;;;;;5074820;28;20047;-74
2022/01/19 09:11:52;;;;;;;64.13;28.35;;;4.30;99.90;;;;;;5057975;28;20036;-74
2022/01/19 09:14:18;;;;;;;70.32;32.10;;;4.30;99.90;;;;;;5074801;28;20036;-74
2022/01/19 09:16:45;;;;;;;77.35;32.47;;;4.30;99.90;;;;;;5058168;28;20047;-74
2022/01/19 09:19:12;;;;;;;78.57;35.13;;;4.30;99.90;;;;;;5057826;28;20036;-74
2022/01/19 09:21:38;;;;;;;80.03;31.65;;;4.30;99.90;;;;;;5057732;28;20135;-74
2022/01/19 09:24:04;;;;;;;74.95;34.90;;;4.30;99.90;;;;;;5057682;28;20048;-74
2022/01/19 09:26:31;;;;;;;66.20;29.83;;;4.30;99.90;;;;;;5074612;28;20044;-74
2022/01/19 09:28:57;;;;;;;78.30;34.10;;;4.30;99.90;;;;;;5055169;28;20111;-74
2022/01/19 09:31:24;;;;;;;65.80;30.20;;;4.30;99.90;;;;;;5074363;28;20425;-74
2022/01/19 09:34:04;;;;;;;73.22;33.47;;;4.30;99.90;;;;;;5072166;28;20071;-75
2022/01/19 09:36:32;;;;;;;;;;;4.40;99.90;;;;;;5060826;28;20054;-75
2022/01/19 09:38:59;;;;;;;68.47;30.58;;;4.40;99.90;;;;;;5061807;28;20504;-74
2022/01/19 09:41:26;;;;;;;68.28;31.17;;;4.40;99.90;;;;;;5078097;28;20043;-74
2022/01/19 09:43:52;;;;;;;80.30;35.38;;;4.40;99.90;;;;;;5078199;28;20375;-75
2022/01/19 09:46:18;;;;;;;59.30;26.63;;;4.40;99.90;;;;;;5061437;28;20042;-74
2022/01/19 09:48:44;;;;;;;62.20;26.30;;;4.40;99.90;;;;;;5078231;28;20032;-75
2022/01/19 09:51:12;;;;;;;73.93;29.65;;;4.50;99.90;;;;;;5061655;28;20059;-74
2022/01/19 09:53:38;;;;;;;71.28;32.13;;;4.40;99.90;;;;;;5077947;28;20040;-74
2022/01/19 09:56:04;;;;;;;68.65;31.38;;;4.50;99.90;;;;;;5077801;28;20036;-75
2022/01/19 09:58:29;;;;;;;53.15;26.88;;;4.50;99.90;;;;;;5077742;28;20179;-74
2022/01/19 10:00:55;;;;;;;76.43;33.63;;;4.50;99.90;;;;;;5077739;28;20043;-74
2022/01/19 10:03:28;;;;;;;70.13;31.20;;;4.60;99.90;;;;;;5075801;28;20035;-73
2022/01/19 10:06:10;;;;;;;76.97;36.08;;;4.60;99.90;;;;;;5061053;28;20032;-75
2022/01/19 10:08:39;;;;;;;76.25;34.67;;;4.60;99.90;;;;;;5078017;28;20036;-75
2022/01/19 10:11:29;;;;;;;61.83;32.20;;;4.60;99.90;;;;;;5077917;28;20390;-75
2022/01/19 10:17:03;;;;;;;73.80;35.53;;;4.70;99.90;;;;;;5077489;28;20506;-75
2022/01/19 10:19:32;;;;;;;76.78;37.50;;;4.70;99.90;;;;;;5060740;28;20044;-75
2022/01/19 10:22:24;;;;;;;78.38;38.00;;;4.70;99.90;;;;;;5060766;28;20514;-75
2022/01/19 10:24:51;;;;;;;79.40;39.33;;;4.80;99.90;;;;;;5077284;28;20245;-74
2022/01/19 10:27:18;;;;;;;71.28;33.83;;;4.80;99.90;;;;;;5060645;28;20058;-75
2022/01/19 10:29:44;;;;;;;82.18;40.22;;;4.90;99.90;;;;;;5060625;28;20499;-76
2022/01/19 10:32:10;;;;;;;87.45;38.67;;;4.90;99.90;;;;;;5068088;28;20048;-76
2022/01/19 10:34:36;;;;;;;76.80;34.42;;;4.90;99.90;;;;;;5086404;28;20399;-77
2022/01/19 10:37:03;;;;;;;84.00;39.15;;;4.90;99.90;;;;;;5077146;28;20442;-77
2022/01/19 10:39:42;;;;;;;83.95;39.95;;;4.90;99.90;;;;;;5077457;28;20086;-75
2022/01/19 10:42:15;;;;;;;88.70;41.83;;;4.90;99.90;;;;;;5077643;28;20105;-75
2022/01/19 10:44:43;;;;;;;81.13;40.05;;;4.90;99.90;;;;;;5076999;28;20074;-75
2022/01/19 10:47:12;;;;;;;83.07;39.17;;;4.90;99.90;;;;;;5076222;28;20059;-75
2022/01/19 10:49:57;;;;;;;82.07;40.85;;;4.90;99.90;;;;;;5060249;28;20113;-75
2022/01/19 10:52:27;;;;;;;77.72;37.33;;;4.90;99.90;;;;;;5076632;28;20047;-76
2022/01/19 10:54:53;;;;;;;80.25;39.92;;;4.90;99.90;;;;;;5060232;28;20040;-78
2022/01/19 10:57:19;;;;;;;76.90;38.88;;;4.80;99.90;;;;;;5061004;28;20036;-78
2022/01/19 10:59:45;;;;;;;77.38;38.35;;;4.80;99.90;;;;;;5077607;28;20097;-80
2022/01/19 11:02:12;;;;;;;80.22;37.63;;;4.90;99.90;;;;;;5074703;28;20043;-75
2022/01/19 11:04:39;;;;;;;76.35;35.55;;;4.90;99.90;;;;;;5076361;28;20484;-75
2022/01/19 11:07:11;;;;;;;86.90;40.40;;;4.90;99.90;;;;;;5076626;28;20044;-76
2022/01/19 11:09:45;;;;;;;70.90;35.25;;;5.00;99.90;;;;;;5076649;28;20075;-78
2022/01/19 11:12:15;;;;;;;89.93;41.92;;;5.00;99.90;;;;;;5076946;28;20048;-76
2022/01/19 11:14:42;;;;;;;83.97;42.70;;;5.00;99.90;;;;;;5076555;28;20101;-76
2022/01/19 11:17:09;;;;;;;79.32;33.17;;;5.00;99.90;;;;;;5059721;28;20369;-76
2022/01/19 11:19:45;;;;;;;89.35;38.40;;;5.00;99.90;;;;;;5076292;28;20039;-76
2022/01/19 11:22:34;;;;;;;85.63;41.03;;;5.00;99.90;;;;;;5059810;28;20139;-76
2022/01/19 11:25:36;;;;;;;81.72;39.60;;;5.00;99.90;;;;;;5059326;28;20059;-77
2022/01/19 11:28:02;;;;;;;87.15;40.88;;;5.10;99.90;;;;;;5076555;28;20036;-75
2022/01/19 11:30:31;;;;;;;86.88;42.40;;;5.10;99.90;;;;;;5076323;28;20085;-75
2022/01/19 11:33:24;;;;;;;81.28;36.83;;;5.20;99.90;;;;;;5074263;28;20035;-76
2022/01/19 11:35:54;;;;;;;82.03;40.40;;;5.30;99.90;;;;;;5076105;28;20079;-76
2022/01/19 11:38:35;;;;;;;75.55;39.08;;;5.40;99.90;;;;;;5059346;28;20050;-76
2022/01/19 11:41:02;;;;;;;;;;;5.50;99.90;;;;;;5076991;28;20090;-76
2022/01/19 11:43:30;;;;;;;69.72;34.38;;;5.50;99.90;;;;;;5076059;28;19916;-76
2022/01/19 11:45:58;;;;;;;81.47;37.65;;;5.60;99.90;;;;;;5059746;28;20054;-76
2022/01/19 11:48:27;;;;;;;75.88;37.55;;;5.80;99.90;;;;;;5059383;28;20040;-76
2022/01/19 11:51:13;;;;;;;67.82;35.60;;;5.90;99.90;;;;;;5059476;28;20036;-77
2022/01/19 11:54:00;;;;;;;78.07;38.90;;;5.90;99.90;;;;;;5059188;28;20127;-77
2022/01/19 11:56:26;;;;;;;82.63;39.60;;;5.80;99.90;;;;;;5059156;28;20040;-76
2022/01/19 11:59:09;;;;;;;76.28;39.17;;;5.70;99.90;;;;;;5058918;28;20061;-76
2022/01/19 12:01:36;;;;;;;83.05;38.55;;;5.70;99.90;;;;;;5075879;28;20468;-76
2022/01/19 12:04:18;;;;;;;71.05;34.88;;;5.60;99.90;;;;;;5074037;28;20051;-77
2022/01/19 12:06:44;;;;;;;82.57;38.28;;;5.60;99.90;;;;;;5075440;28;20050;-76
2022/01/19 12:09:13;;;;;;;88.18;37.72;;;5.50;99.90;;;;;;5058712;28;20040;-76
2022/01/19 12:11:51;;;;;;;80.18;37.45;;;5.50;99.90;;;;;;5075494;28;20071;-75
2022/01/19 12:14:38;;;;;;;79.88;39.90;;;5.50;99.90;;;;;;5058770;28;20036;-77
2022/01/19 12:17:08;;;;;;;77.47;38.53;;;5.50;99.90;;;;;;5075385;28;20047;-76
2022/01/19 12:19:40;;;;;;;80.75;39.60;;;5.50;99.90;;;;;;5075110;28;20048;-75
2022/01/19 12:22:24;;;;;;;80.85;39.22;;;5.50;99.90;;;;;;5058540;28;20135;-75
2022/01/19 12:24:59;;;;;;;82.47;39.45;;;5.50;99.90;;;;;;5089603;28;20052;-74
2022/01/19 12:27:34;;;;;;;78.82;40.25;;;5.50;99.90;;;;;;5091903;28;20032;-74
2022/01/19 12:30:18;;;;;;;81.30;39.10;;;5.50;99.90;;;;;;5074951;28;20044;-75
2022/01/19 12:32:53;;;;;;;73.47;38.45;;;5.60;99.90;;;;;;5090028;28;20409;-74
2022/01/19 12:35:32;;;;;;;76.97;37.90;;;5.60;99.90;;;;;;5091887;28;20044;-73
2022/01/19 12:37:59;;;;;;;74.90;35.40;;;5.70;99.90;;;;;;5092138;28;20126;-74
2022/01/19 12:40:43;;;;;;;72.82;36.20;;;5.70;99.90;;;;;;5091846;28;20113;-74
2022/01/19 12:43:28;;;;;;;70.07;35.33;;;5.70;99.90;;;;;;5091916;28;20046;-73
2022/01/19 12:45:55;;;;;;;71.38;35.13;;;5.80;99.90;;;;;;5091577;28;20047;-73
2022/01/19 12:48:47;;;;;;;69.50;33.70;;;5.80;99.90;;;;;;5091775;28;20507;-74
2022/01/19 12:51:37;;;;;;;62.72;31.73;;;5.80;99.90;;;;;;5091933;28;20118;-73
2022/01/19 12:54:04;;;;;;;71.47;34.35;;;5.80;99.90;;;;;;5075099;28;20058;-75
2022/01/19 12:56:30;;;;;;;76.50;34.65;;;5.90;99.90;;;;;;5071658;28;20297;-73
2022/01/19 12:59:03;;;;;;;72.25;37.83;;;6.00;99.90;;;;;;5073603;28;20399;-74
2022/01/19 13:01:30;;;;;;;67.20;37.10;;;6.10;99.90;;;;;;5074517;28;20040;-75
2022/01/19 13:03:57;;;;;;;73.32;35.40;;;6.20;99.90;;;;;;5072499;28;20442;-74
2022/01/19 13:06:26;;;;;;;67.75;33.70;;;6.20;99.90;;;;;;5074542;28;20115;-75
2022/01/19 13:09:01;;;;;;;69.57;35.50;;;6.20;99.90;;;;;;5074610;28;20032;-74
2022/01/19 13:11:39;;;;;;;66.05;34.50;;;6.10;99.90;;;;;;5077575;28;20044;-74
2022/01/19 13:14:10;;;;;;;62.47;30.67;;;6.10;99.90;;;;;;5078937;28;20032;-73
2022/01/19 13:16:44;;;;;;;78.63;35.25;;;6.10;99.90;;;;;;5061885;28;20039;-73
2022/01/19 13:19:18;;;;;;;61.70;30.55;;;6.10;99.90;;;;;;5061838;28;20131;-73
2022/01/19 13:21:48;;;;;;;55.33;26.65;;;6.00;99.90;;;;;;5048249;28;20060;-74
2022/01/19 13:24:26;;;;;;;58.28;28.42;;;6.00;99.90;;;;;;5058510;28;20056;-73
2022/01/19 13:26:54;;;;;;;47.38;25.65;;;6.00;99.90;;;;;;5041782;28;20128;-74
2022/01/19 13:29:26;;;;;;;54.35;24.90;;;6.00;99.90;;;;;;5058613;28;20416;-74
2022/01/19 13:31:59;;;;;;;43.38;21.00;;;6.00;99.90;;;;;;5057881;28;20048;-74
2022/01/19 13:34:26;;;;;;;41.45;21.95;;;6.00;99.90;;;;;;5041028;28;20044;-73
2022/01/19 13:36:54;;;;;;;46.95;22.65;;;6.00;99.90;;;;;;5058420;28;20063;-74
2022/01/19 13:39:22;;;;;;;45.90;22.58;;;6.00;99.90;;;;;;5041537;28;20044;-73
2022/01/19 13:41:51;;;;;;;45.50;23.75;;;6.00;99.90;;;;;;5058328;28;20078;-74
2022/01/19 13:44:22;;;;;;;54.28;26.60;;;6.00;99.90;;;;;;5057910;28;20044;-73
2022/01/19 13:46:47;;;;;;;55.78;26.20;;;6.00;99.90;;;;;;5041218;28;20488;-73
2022/01/19 13:49:13;;;;;;;48.22;25.02;;;5.90;99.90;;;;;;5057910;28;20036;-73
2022/01/19 13:51:43;;;;;;;54.17;26.88;;;6.00;99.90;;;;;;5045303;28;20033;-72
2022/01/19 13:54:09;;;;;;;51.97;25.97;;;5.90;99.90;;;;;;5057874;28;20044;-72
2022/01/19 13:56:41;;;;;;;53.88;25.85;;;5.90;99.90;;;;;;5074258;28;20132;-73
2022/01/19 13:59:17;;;;;;;52.00;26.88;;;5.90;99.90;;;;;;5041130;28;20472;-72
2022/01/19 14:01:56;;;;;;;54.15;24.52;;;5.80;99.90;;;;;;5040849;28;20132;-72
2022/01/19 14:04:23;;;;;;;45.13;23.90;;;5.90;99.90;;;;;;5056606;28;20055;-72
2022/01/19 14:06:49;;;;;;;51.05;25.88;;;5.80;99.90;;;;;;5057796;28;20040;-73